Time;durP1;ratioP1;P1;durP2;ratioP2;P2;SDS_P1;SDS_P2;PMS_P1;PMS_P2;Temp;Humidity;BMP_temperature;BMP_pressure;BME280_temperature;BME280_humidity;BME280_pressure;Samples;Min_cycle;Max_cycle;Signal;HPM_P1;HPM_P2
2022/11/12 00:00:24;;;;;;;;;32.67;31.67;;;;;;;;5050926;28;47125;-87
2022/11/12 00:02:49;;;;;;;;;38.00;34.33;;;;;;;;5049891;28;44757;-87
2022/11/12 00:05:18;;;;;;;;;44.75;36.25;;;;;;;;5050032;28;45349;-88
2022/11/12 00:07:44;;;;;;;;;49.00;35.25;;;;;;;;5050158;28;46334;-88
2022/11/12 00:10:09;;;;;;;;;41.25;35.75;;;;;;;;5066542;28;45355;-88
2022/11/12 00:12:35;;;;;;;;;44.25;34.00;;;;;;;;5067531;28;44761;-89
2022/11/12 00:15:01;;;;;;;;;44.75;37.50;;;;;;;;5050186;28;45245;-87
2022/11/12 00:17:26;;;;;;;;;48.25;40.25;;;;;;;;5047582;28;45724;-88
2022/11/12 00:19:53;;;;;;;;;42.00;36.75;;;;;;;;5066313;28;45493;-87
2022/11/12 00:22:18;;;;;;;;;52.25;43.25;;;;;;;;5046735;28;45332;-88
2022/11/12 00:24:44;;;;;;;;;46.50;35.25;;;;;;;;5065755;28;45484;-88
2022/11/12 00:27:10;;;;;;;;;53.50;43.00;;;;;;;;5046149;28;47117;-88
2022/11/12 00:29:37;;;;;;;;;57.25;45.00;;;;;;;;5048504;28;46931;-89
2022/11/12 00:32:04;;;;;;;;;59.25;44.75;;;;;;;;5047236;28;44736;-88
2022/11/12 00:34:30;;;;;;;;;56.75;45.75;;;;;;;;5058199;28;44721;-87
2022/11/12 00:36:55;;;;;;;;;59.00;48.75;;;;;;;;5070214;28;45462;-87
2022/11/12 00:39:21;;;;;;;;;52.25;43.50;;;;;;;;5066484;28;45718;-89
2022/11/12 00:41:47;;;;;;;;;60.75;48.25;;;;;;;;5067093;28;44816;-89
2022/11/12 00:44:13;;;;;;;;;61.25;44.75;;;;;;;;5061845;28;45889;-87
2022/11/12 00:46:38;;;;;;;;;60.25;47.50;;;;;;;;5067427;28;45818;-88
2022/11/12 00:49:04;;;;;;;;;60.50;47.25;;;;;;;;5068634;28;46831;-88
2022/11/12 00:51:29;;;;;;;;;53.75;44.00;;;;;;;;5088815;28;45410;-88
2022/11/12 00:53:54;;;;;;;;;64.75;47.50;;;;;;;;5070247;28;45465;-88
2022/11/12 00:56:23;;;;;;;;;60.75;47.00;;;;;;;;5066307;28;46519;-87
2022/11/12 00:58:49;;;;;;;;;60.25;46.25;;;;;;;;5088283;28;45362;-87
2022/11/12 01:01:14;;;;;;;;;58.50;46.50;;;;;;;;5080068;27;44810;-88
2022/11/12 01:03:40;;;;;;;;;56.25;45.25;;;;;;;;5062423;28;45784;-89
2022/11/12 01:06:07;;;;;;;;;58.75;46.00;;;;;;;;5060843;28;47208;-86
2022/11/12 01:08:36;;;;;;;;;63.00;46.00;;;;;;;;5080273;28;46742;-88
2022/11/12 01:11:06;;;;;;;;;59.50;44.50;;;;;;;;5064897;28;44737;-86
2022/11/12 01:13:31;;;;;;;;;55.50;43.25;;;;;;;;5062527;28;45443;-87
2022/11/12 01:15:56;;;;;;;;;55.75;45.00;;;;;;;;5077505;28;45575;-87
2022/11/12 01:18:22;;;;;;;;;51.50;43.75;;;;;;;;5077618;27;47045;-85
2022/11/12 01:20:54;;;;;;;;;49.00;40.25;;;;;;;;5058581;28;45900;-87
2022/11/12 01:23:25;;;;;;;;;55.25;44.00;;;;;;;;5078052;28;44898;-87
2022/11/12 01:25:51;;;;;;;;;48.00;38.25;;;;;;;;5058704;28;45943;-87
2022/11/12 01:28:16;;;;;;;;;42.75;34.75;;;;;;;;5075763;28;46404;-87
2022/11/12 01:30:42;;;;;;;;;47.00;38.00;;;;;;;;5063039;28;45805;-86
2022/11/12 01:33:07;;;;;;;;;48.75;38.50;;;;;;;;5072137;28;45942;-86
2022/11/12 01:35:32;;;;;;;;;53.00;40.50;;;;;;;;5080376;28;45674;-84
2022/11/12 01:37:57;;;;;;;;;37.75;32.50;;;;;;;;5059668;28;45501;-87
2022/11/12 01:40:23;;;;;;;;;48.00;38.75;;;;;;;;5060734;28;45675;-87
2022/11/12 01:42:52;;;;;;;;;41.00;35.75;;;;;;;;5062045;28;44776;-87
2022/11/12 01:45:17;;;;;;;;;43.75;36.00;;;;;;;;5061141;28;45909;-88
2022/11/12 01:47:46;;;;;;;;;41.25;34.50;;;;;;;;5061662;28;46873;-88
2022/11/12 01:50:15;;;;;;;;;42.00;34.50;;;;;;;;5062393;28;45854;-86
2022/11/12 01:52:53;;;;;;;;;40.00;31.67;;;;;;;;5073325;28;45485;-86
2022/11/12 01:55:21;;;;;;;;;34.67;30.67;;;;;;;;5079686;28;45392;-85
2022/11/12 01:57:48;;;;;;;;;41.00;32.00;;;;;;;;5064586;28;45412;-85
2022/11/12 02:00:14;;;;;;;;;44.00;37.00;;;;;;;;5085920;28;45438;-86
2022/11/12 02:02:42;;;;;;;;;35.67;31.67;;;;;;;;5072337;28;45457;-85
2022/11/12 02:05:08;;;;;;;;;42.00;35.33;;;;;;;;5088500;28;45838;-81
2022/11/12 02:07:35;;;;;;;;;41.00;33.67;;;;;;;;5053244;28;46739;-82
2022/11/12 02:10:01;;;;;;;;;43.33;35.00;;;;;;;;5052996;28;45844;-81
2022/11/12 02:15:10;;;;;;;;;43.33;34.67;;;;;;;;5070581;28;45754;-80
2022/11/12 02:17:35;;;;;;;;;42.67;36.33;;;;;;;;5051073;28;47187;-80
2022/11/12 02:20:01;;;;;;;;;44.33;34.00;;;;;;;;5049181;28;45759;-81
2022/11/12 02:22:26;;;;;;;;;38.67;35.67;;;;;;;;5054143;28;45481;-79
2022/11/12 02:24:51;;;;;;;;;37.00;33.33;;;;;;;;5065908;28;45963;-81
2022/11/12 02:27:17;;;;;;;;;38.67;30.33;;;;;;;;5053996;28;47265;-80
2022/11/12 02:29:45;;;;;;;;;35.00;31.67;;;;;;;;5074444;28;45543;-88
2022/11/12 02:32:13;;;;;;;;;43.67;35.33;;;;;;;;5054363;28;45878;-82
2022/11/12 02:34:38;;;;;;;;;46.50;35.75;;;;;;;;5044847;28;46319;-80
2022/11/12 02:37:04;;;;;;;;;42.75;36.25;;;;;;;;5080719;28;45096;-79
2022/11/12 02:39:30;;;;;;;;;44.75;36.75;;;;;;;;5061084;28;45839;-86
2022/11/12 02:41:56;;;;;;;;;47.25;37.25;;;;;;;;5070015;28;45757;-86
2022/11/12 02:44:21;;;;;;;;;66.00;52.50;;;;;;;;5067162;28;46125;-86
2022/11/12 02:46:47;;;;;;;;;38.67;33.00;;;;;;;;5086700;28;46856;-86
2022/11/12 02:49:12;;;;;;;;;45.00;36.67;;;;;;;;5067365;28;45512;-85
2022/11/12 02:51:37;;;;;;;;;42.00;35.00;;;;;;;;5067646;28;45824;-85
2022/11/12 02:54:03;;;;;;;;;36.00;34.00;;;;;;;;5085419;28;45508;-88
2022/11/12 02:56:28;;;;;;;;;36.33;33.67;;;;;;;;5085969;28;46511;-86
2022/11/12 02:58:53;;;;;;;;;40.00;34.67;;;;;;;;5084733;28;45416;-87
2022/11/12 03:01:18;;;;;;;;;47.33;39.33;;;;;;;;5067846;28;45443;-84
2022/11/12 03:03:44;;;;;;;;;41.67;33.67;;;;;;;;5067422;28;45961;-85
2022/11/12 03:06:11;;;;;;;;;46.33;35.00;;;;;;;;5077362;28;45776;-86
2022/11/12 03:08:36;;;;;;;;;40.67;35.00;;;;;;;;5087905;28;45856;-86
2022/11/12 03:11:06;;;;;;;;;38.00;31.67;;;;;;;;5067328;28;44956;-85
2022/11/12 03:13:31;;;;;;;;;40.00;34.67;;;;;;;;5066400;28;46557;-86
2022/11/12 03:15:59;;;;;;;;;39.67;33.33;;;;;;;;5069040;28;46815;-86
2022/11/12 03:18:25;;;;;;;;;38.67;32.67;;;;;;;;5074680;28;45443;-86
2022/11/12 03:20:51;;;;;;;;;40.00;34.67;;;;;;;;5074946;28;45480;-85
2022/11/12 03:23:16;;;;;;;;;41.33;32.00;;;;;;;;5078095;28;46240;-87
2022/11/12 03:25:41;;;;;;;;;34.00;30.33;;;;;;;;5082806;27;45881;-86
2022/11/12 03:28:11;;;;;;;;;36.33;31.33;;;;;;;;5075642;28;45408;-85
2022/11/12 03:30:37;;;;;;;;;33.67;25.33;;;;;;;;5071816;28;45541;-86
2022/11/12 03:33:04;;;;;;;;;38.67;32.67;;;;;;;;5087466;28;45445;-85
2022/11/12 03:35:29;;;;;;;;;36.00;31.67;;;;;;;;5068921;28;47962;-86
2022/11/12 03:37:55;;;;;;;;;32.00;27.67;;;;;;;;5072336;28;45475;-86
2022/11/12 03:40:20;;;;;;;;;27.33;27.33;;;;;;;;5089898;28;45306;-85
2022/11/12 03:42:50;;;;;;;;;31.00;28.67;;;;;;;;5064434;28;45905;-85
2022/11/12 03:45:16;;;;;;;;;30.33;28.00;;;;;;;;5060453;28;45752;-85
2022/11/12 03:47:46;;;;;;;;;33.67;25.67;;;;;;;;5074543;28;45509;-86
2022/11/12 03:50:12;;;;;;;;;28.67;25.67;;;;;;;;5068290;28;45348;-85
2022/11/12 03:52:37;;;;;;;;;25.33;24.33;;;;;;;;5089966;28;45362;-84
2022/11/12 03:55:03;;;;;;;;;28.00;25.33;;;;;;;;5069093;28;46362;-86
2022/11/12 03:57:28;;;;;;;;;27.00;25.33;;;;;;;;5070126;28;45944;-84
2022/11/12 03:59:53;;;;;;;;;31.00;24.00;;;;;;;;5071984;28;45538;-86
2022/11/12 04:02:19;;;;;;;;;27.67;22.67;;;;;;;;5074784;28;46624;-86
2022/11/12 04:10:12;;;;;;;;;28.33;23.33;;;;;;;;5094809;28;45189;-84
2022/11/12 04:15:21;;;;;;;;;24.00;23.67;;;;;;;;5093775;28;44862;-87
2022/11/12 04:23:16;;;;;;;;;24.67;23.67;;;;;;;;5055044;28;45376;-86
2022/11/12 04:28:26;;;;;;;;;29.00;25.33;;;;;;;;5094701;28;45288;-85
2022/11/12 04:30:51;;;;;;;;;27.00;25.33;;;;;;;;5065330;28;44808;-86
2022/11/12 04:33:17;;;;;;;;;37.00;28.67;;;;;;;;5076569;28;46343;-85
2022/11/12 04:35:43;;;;;;;;;18.67;15.00;;;;;;;;5092139;28;45187;-86
2022/11/12 04:38:09;;;;;;;;;28.00;24.00;;;;;;;;5081231;27;44741;-87
2022/11/12 04:46:19;;;;;;;;;28.00;24.00;;;;;;;;5050397;28;46203;-87
2022/11/12 04:48:44;;;;;;;;;25.33;23.00;;;;;;;;5070987;28;45110;-86
2022/11/12 04:53:53;;;;;;;;;25.67;22.67;;;;;;;;5099059;27;44653;-86
2022/11/12 04:56:20;;;;;;;;;19.33;14.67;;;;;;;;5102573;27;45309;-86
2022/11/12 04:58:45;;;;;;;;;28.33;22.67;;;;;;;;5096416;28;44841;-85
2022/11/12 05:01:11;;;;;;;;;27.33;26.67;;;;;;;;5078042;28;45172;-85
2022/11/12 05:03:36;;;;;;;;;24.67;22.67;;;;;;;;5097504;27;44974;-85
2022/11/12 05:06:50;;;;;;;;;29.33;27.67;;;;;;;;5098314;27;45226;-87
2022/11/12 05:08:53;;;;;;;;;27.00;20.67;;;;;;;;5096645;28;44788;-87
2022/11/12 05:11:18;;;;;;;;;22.00;19.00;;;;;;;;5078646;28;45056;-85
2022/11/12 05:13:44;;;;;;;;;27.00;25.33;;;;;;;;5076026;28;46304;-83
2022/11/12 05:16:09;;;;;;;;;29.00;27.33;;;;;;;;5095839;28;45267;-84
2022/11/12 05:18:35;;;;;;;;;23.67;22.00;;;;;;;;5089626;28;44692;-79
2022/11/12 05:22:03;;;;;;;;;25.67;25.67;;;;;;;;5086691;28;45638;-80
2022/11/12 05:23:45;;;;;;;;;21.33;18.33;;;;;;;;5088643;27;45309;-78
2022/11/12 05:26:10;;;;;;;;;18.00;17.00;;;;;;;;5057233;28;47343;-78
2022/11/12 05:28:36;;;;;;;;;26.00;20.00;;;;;;;;5068051;28;45529;-78
2022/11/12 05:31:01;;;;;;;;;26.67;22.33;;;;;;;;5070552;28;45645;-79
2022/11/12 05:33:26;;;;;;;;;24.33;20.33;;;;;;;;5079039;28;46028;-77
2022/11/12 05:35:54;;;;;;;;;26.67;26.33;;;;;;;;5079820;28;45375;-77
2022/11/12 05:38:19;;;;;;;;;31.33;27.33;;;;;;;;5076837;28;45366;-78
2022/11/12 05:40:44;;;;;;;;;25.67;21.00;;;;;;;;5063241;28;45413;-83
2022/11/12 05:43:10;;;;;;;;;19.67;17.67;;;;;;;;5065464;28;45839;-86
2022/11/12 05:45:36;;;;;;;;;25.67;19.00;;;;;;;;5059146;28;46853;-84
2022/11/12 05:48:01;;;;;;;;;27.33;22.67;;;;;;;;5070930;28;45459;-86
2022/11/12 05:50:26;;;;;;;;;29.33;23.33;;;;;;;;5080800;27;45852;-78
2022/11/12 05:52:52;;;;;;;;;21.67;19.00;;;;;;;;5065235;28;46269;-85
2022/11/12 05:55:17;;;;;;;;;23.00;22.00;;;;;;;;5094897;28;45937;-84
2022/11/12 05:57:42;;;;;;;;;24.67;19.67;;;;;;;;5053320;28;45790;-79
2022/11/12 06:00:08;;;;;;;;;59.00;46.75;;;;;;;;5070370;28;45438;-79
2022/11/12 06:02:33;;;;;;;;;32.33;29.00;;;;;;;;5071443;28;45742;-78
2022/11/12 06:04:58;;;;;;;;;26.33;21.33;;;;;;;;5054175;28;47977;-79
2022/11/12 06:07:24;;;;;;;;;27.00;24.33;;;;;;;;5073542;28;45655;-79
2022/11/12 06:09:49;;;;;;;;;26.33;22.33;;;;;;;;5053375;28;45535;-80
2022/11/12 06:12:14;;;;;;;;;21.67;18.67;;;;;;;;5072313;28;45401;-78
2022/11/12 06:14:39;;;;;;;;;24.67;22.33;;;;;;;;5063535;28;48286;-79
2022/11/12 06:17:05;;;;;;;;;22.00;20.33;;;;;;;;5077816;28;45419;-78
2022/11/12 06:19:30;;;;;;;;;26.00;23.67;;;;;;;;5082722;28;45792;-78
2022/11/12 06:21:55;;;;;;;;;27.33;25.33;;;;;;;;5056752;28;47001;-79
2022/11/12 06:24:20;;;;;;;;;26.33;20.00;;;;;;;;5080545;27;46204;-79
2022/11/12 06:26:45;;;;;;;;;24.00;22.00;;;;;;;;5075452;28;45744;-78
2022/11/12 06:29:11;;;;;;;;;22.33;20.67;;;;;;;;5079507;28;45975;-77
2022/11/12 06:31:36;;;;;;;;;29.33;23.67;;;;;;;;5063253;28;45548;-77
2022/11/12 06:34:02;;;;;;;;;24.00;21.67;;;;;;;;5062958;28;46146;-79
2022/11/12 06:36:27;;;;;;;;;25.00;24.67;;;;;;;;5065991;28;46015;-79
2022/11/12 06:38:52;;;;;;;;;24.00;22.67;;;;;;;;5054581;28;45354;-80
2022/11/12 06:41:18;;;;;;;;;23.33;22.00;;;;;;;;5053299;28;45561;-78
2022/11/12 06:43:43;;;;;;;;;26.67;23.33;;;;;;;;5074110;28;46304;-82
2022/11/12 06:46:15;;;;;;;;;22.67;21.00;;;;;;;;5069935;28;45611;-80
2022/11/12 06:48:41;;;;;;;;;25.67;23.67;;;;;;;;5055335;28;45435;-80
2022/11/12 06:51:07;;;;;;;;;21.00;18.00;;;;;;;;5055542;28;46167;-77
2022/11/12 06:53:32;;;;;;;;;26.33;24.00;;;;;;;;5063774;28;47297;-77
2022/11/12 06:56:02;;;;;;;;;26.00;23.33;;;;;;;;5057717;28;45813;-78
2022/11/12 06:58:27;;;;;;;;;25.67;21.67;;;;;;;;5075685;28;45714;-78
2022/11/12 07:00:52;;;;;;;;;19.33;19.33;;;;;;;;5073793;28;45446;-79
2022/11/12 07:03:22;;;;;;;;;28.67;23.33;;;;;;;;5076638;28;45602;-80
2022/11/12 07:05:48;;;;;;;;;26.67;21.67;;;;;;;;5054783;28;45418;-81
2022/11/12 07:08:14;;;;;;;;;28.67;24.33;;;;;;;;5078185;28;45472;-82
2022/11/12 07:10:39;;;;;;;;;23.67;21.33;;;;;;;;5077284;28;45839;-81
2022/11/12 07:13:04;;;;;;;;;32.33;27.33;;;;;;;;5076673;28;45924;-82
2022/11/12 07:15:29;;;;;;;;;23.67;23.00;;;;;;;;5077427;28;45802;-83
2022/11/12 07:17:55;;;;;;;;;29.00;26.67;;;;;;;;5077806;28;45407;-80
2022/11/12 07:20:20;;;;;;;;;25.00;21.00;;;;;;;;5076571;28;45847;-80
2022/11/12 07:22:45;;;;;;;;;29.67;22.00;;;;;;;;5057942;28;48136;-79
2022/11/12 07:25:11;;;;;;;;;30.67;25.33;;;;;;;;5077885;28;45382;-82
2022/11/12 07:27:37;;;;;;;;;33.33;23.00;;;;;;;;5077909;28;45798;-81
2022/11/12 07:30:02;;;;;;;;;23.33;19.33;;;;;;;;5058827;28;45602;-81
2022/11/12 07:32:28;;;;;;;;;16.00;13.33;;;;;;;;5058015;28;48064;-80
2022/11/12 07:34:53;;;;;;;;;21.33;19.67;;;;;;;;5074338;28;45462;-82
2022/11/12 07:37:19;;;;;;;;;24.67;23.00;;;;;;;;5056435;28;45640;-79
2022/11/12 07:39:46;;;;;;;;;21.00;21.00;;;;;;;;5077044;28;45471;-82
2022/11/12 07:42:11;;;;;;;;;22.67;21.00;;;;;;;;5074320;28;45538;-82
2022/11/12 07:44:36;;;;;;;;;27.33;24.33;;;;;;;;5054672;28;45482;-79
2022/11/12 07:47:02;;;;;;;;;23.67;22.33;;;;;;;;5076948;28;45434;-83
2022/11/12 07:49:27;;;;;;;;;25.67;21.33;;;;;;;;5075106;28;45550;-80
2022/11/12 07:51:52;;;;;;;;;25.00;22.67;;;;;;;;5077538;28;45432;-83
2022/11/12 07:54:18;;;;;;;;;17.67;15.67;;;;;;;;5054232;28;45292;-80
2022/11/12 07:56:43;;;;;;;;;29.00;22.33;;;;;;;;5074496;28;46007;-81
2022/11/12 07:59:08;;;;;;;;;24.00;20.33;;;;;;;;5057499;28;45962;-82
2022/11/12 08:01:35;;;;;;;;;22.33;20.00;;;;;;;;5076287;28;45868;-84
2022/11/12 08:04:01;;;;;;;;;21.67;19.67;;;;;;;;5077419;28;46087;-82
2022/11/12 08:06:27;;;;;;;;;24.00;19.67;;;;;;;;5074639;28;45458;-81
2022/11/12 08:08:54;;;;;;;;;21.67;20.33;;;;;;;;5056433;28;46706;-79
2022/11/12 08:11:19;;;;;;;;;25.33;23.33;;;;;;;;5053767;28;48271;-83
2022/11/12 08:13:44;;;;;;;;;27.00;23.67;;;;;;;;5079124;28;45430;-83
2022/11/12 08:16:10;;;;;;;;;17.33;16.00;;;;;;;;5048296;27;45446;-82
2022/11/12 08:18:35;;;;;;;;;22.33;21.00;;;;;;;;5077537;28;45597;-82
2022/11/12 08:21:02;;;;;;;;;22.00;21.33;;;;;;;;5059444;27;46934;-82
2022/11/12 08:23:28;;;;;;;;;21.33;20.67;;;;;;;;5074778;27;45492;-84
2022/11/12 08:25:56;;;;;;;;;20.33;20.33;;;;;;;;5055912;28;45807;-84
2022/11/12 08:28:22;;;;;;;;;18.00;17.00;;;;;;;;5061195;27;46463;-85
2022/11/12 08:30:47;;;;;;;;;24.33;24.33;;;;;;;;5047313;28;47555;-81
2022/11/12 08:33:14;;;;;;;;;24.33;23.00;;;;;;;;5069281;27;45425;-82
2022/11/12 08:35:39;;;;;;;;;25.00;23.33;;;;;;;;5067858;27;45692;-84
2022/11/12 08:38:09;;;;;;;;;21.00;20.33;;;;;;;;5069710;27;45566;-79
2022/11/12 08:40:34;;;;;;;;;28.00;25.33;;;;;;;;5065413;28;46054;-80
2022/11/12 08:43:01;;;;;;;;;23.00;21.00;;;;;;;;5073105;27;45777;-82
2022/11/12 08:45:26;;;;;;;;;26.33;22.00;;;;;;;;5050190;28;45968;-81
2022/11/12 08:47:54;;;;;;;;;28.67;25.00;;;;;;;;5053733;28;45813;-84
2022/11/12 08:50:21;;;;;;;;;25.00;21.00;;;;;;;;5074393;28;45837;-82
2022/11/12 08:52:50;;;;;;;;;23.67;19.67;;;;;;;;5063537;27;45525;-82
2022/11/12 08:55:23;;;;;;;;;22.67;22.67;;;;;;;;5053285;28;45847;-82
2022/11/12 08:57:49;;;;;;;;;25.00;24.00;;;;;;;;5062179;28;45638;-82
2022/11/12 09:00:15;;;;;;;;;27.00;23.33;;;;;;;;5074732;28;45857;-82
2022/11/12 09:02:40;;;;;;;;;24.67;17.33;;;;;;;;5076753;28;45812;-85
2022/11/12 09:05:29;;;;;;;;;25.67;23.00;;;;;;;;5076285;28;45779;-86
2022/11/12 09:08:01;;;;;;;;;22.67;21.33;;;;;;;;5073024;27;45465;-82
2022/11/12 09:10:31;;;;;;;;;20.67;19.33;;;;;;;;5076354;28;45595;-82
2022/11/12 09:13:08;;;;;;;;;26.33;20.00;;;;;;;;5074005;28;45553;-78
2022/11/12 09:15:45;;;;;;;;;20.33;19.33;;;;;;;;5054999;28;45561;-85
2022/11/12 09:18:12;;;;;;;;;21.33;21.33;;;;;;;;5075260;28;45783;-81
2022/11/12 09:20:40;;;;;;;;;23.33;20.00;;;;;;;;5064112;28;45831;-82
2022/11/12 09:23:27;;;;;;;;;23.00;20.67;;;;;;;;5080516;27;45664;-85
2022/11/12 09:25:57;;;;;;;;;23.33;22.33;;;;;;;;5073220;28;45766;-81
2022/11/12 09:28:23;;;;;;;;;23.33;20.33;;;;;;;;5057520;28;45474;-83
2022/11/12 09:34:23;;;;;;;;;20.67;19.00;;;;;;;;5042541;28;45898;-82
2022/11/12 09:37:31;;;;;;;;;22.00;21.33;;;;;;;;5074802;28;45482;-81
2022/11/12 09:40:52;;;;;;;;;23.00;21.33;;;;;;;;5009283;28;45580;-82
2022/11/12 09:43:24;;;;;;;;;26.33;23.00;;;;;;;;4989778;28;45801;-83
2022/11/12 09:46:23;;;;;;;;;25.33;23.33;;;;;;;;5005118;28;45520;-82
2022/11/12 09:49:17;;;;;;;;;;;;;;;;;;;;;
2022/11/12 09:58:15;;;;;;;;;34.33;32.33;;;;;;;;4985576;28;45949;-83
2022/11/12 10:04:29;;;;;;;;;19.00;19.00;;;;;;;;4986843;28;46099;-85
2022/11/12 10:07:09;;;;;;;;;25.67;24.67;;;;;;;;4977125;28;47311;-82
2022/11/12 10:09:58;;;;;;;;;24.33;23.33;;;;;;;;4977553;28;45840;-82
2022/11/12 10:22:03;;;;;;;;;27.67;26.00;;;;;;;;4992019;28;45716;-84
2022/11/12 10:25:09;;;;;;;;;29.67;23.33;;;;;;;;5031398;28;45619;-84
2022/11/12 10:31:15;;;;;;;;;;;;;;;;;;;;;
2022/11/12 10:33:46;;;;;;;;;29.67;26.67;;;;;;;;5065067;28;72391;-84
2022/11/12 10:36:14;;;;;;;;;30.33;24.33;;;;;;;;5078239;28;45444;-81
2022/11/12 10:38:56;;;;;;;;;27.67;24.33;;;;;;;;5075619;28;45751;-82
2022/11/12 10:44:26;;;;;;;;;38.33;27.67;;;;;;;;5064610;27;45864;-82
2022/11/12 10:47:54;;;;;;;;;28.00;27.00;;;;;;;;5076557;28;45676;-81
2022/11/12 10:50:20;;;;;;;;;30.67;29.00;;;;;;;;5066634;27;45883;-82
2022/11/12 10:53:21;;;;;;;;;29.00;24.33;;;;;;;;5048099;28;47504;-82
2022/11/12 10:56:25;;;;;;;;;30.33;27.67;;;;;;;;5050084;27;45973;-83
2022/11/12 10:59:15;;;;;;;;;34.00;26.00;;;;;;;;5023107;27;45796;-85
2022/11/12 11:01:46;;;;;;;;;32.00;29.33;;;;;;;;5069555;27;47088;-82
2022/11/12 11:04:28;;;;;;;;;28.67;26.00;;;;;;;;5074159;28;45399;-83
2022/11/12 11:06:58;;;;;;;;;31.00;29.33;;;;;;;;5065435;28;45521;-81
2022/11/12 11:09:24;;;;;;;;;36.00;28.33;;;;;;;;5053954;28;45474;-81
2022/11/12 11:11:51;;;;;;;;;27.67;26.67;;;;;;;;5074278;27;46201;-83
2022/11/12 11:14:22;;;;;;;;;28.33;28.33;;;;;;;;5082222;27;45366;-83
2022/11/12 11:16:56;;;;;;;;;26.33;22.33;;;;;;;;5091472;28;45603;-82
2022/11/12 11:19:44;;;;;;;;;33.00;29.00;;;;;;;;5092753;27;44814;-83
2022/11/12 11:22:29;;;;;;;;;26.33;24.67;;;;;;;;5093256;28;44927;-84
2022/11/12 11:24:58;;;;;;;;;32.33;27.00;;;;;;;;5097485;27;47234;-85
2022/11/12 11:27:42;;;;;;;;;31.67;28.00;;;;;;;;5079418;28;44765;-85
2022/11/12 11:30:21;;;;;;;;;28.50;25.50;;;;;;;;5090831;27;45487;-84
2022/11/12 11:33:05;;;;;;;;;25.00;22.00;;;;;;;;5080714;27;45977;-85
2022/11/12 11:35:41;;;;;;;;;33.00;30.33;;;;;;;;5099422;27;45564;-87
2022/11/12 11:38:21;;;;;;;;;40.33;33.33;;;;;;;;5063848;27;45438;-84
2022/11/12 11:40:47;;;;;;;;;30.00;29.00;;;;;;;;5065782;28;45530;-87
2022/11/12 11:43:24;;;;;;;;;36.67;34.00;;;;;;;;5059573;28;46904;-86
2022/11/12 11:46:18;;;;;;;;;31.00;24.33;;;;;;;;5080927;28;45817;-84
2022/11/12 11:49:18;;;;;;;;;35.00;28.67;;;;;;;;5022034;28;45450;-82
2022/11/12 11:52:39;;;;;;;;;35.33;31.33;;;;;;;;5069020;28;45537;-82
2022/11/12 11:55:09;;;;;;;;;32.00;30.67;;;;;;;;5065795;27;45689;-82
2022/11/12 11:57:42;;;;;;;;;33.00;31.00;;;;;;;;5066883;28;45441;-82
2022/11/12 12:00:44;;;;;;;;;32.67;28.33;;;;;;;;5061169;28;45522;-83
2022/11/12 12:13:09;;;;;;;;;35.33;29.67;;;;;;;;5008871;28;45605;-82
2022/11/12 12:16:07;;;;;;;;;31.67;26.67;;;;;;;;4958451;28;45451;-81
2022/11/12 12:18:59;;;;;;;;;34.00;24.67;;;;;;;;4955382;28;45557;-83
2022/11/12 12:21:41;;;;;;;;;;;;;;;;;;;;;
2022/11/12 12:24:42;;;;;;;;;31.00;28.00;;;;;;;;4949549;28;72726;-83
2022/11/12 12:27:35;;;;;;;;;36.33;31.33;;;;;;;;4945984;28;45524;-81
2022/11/12 12:30:47;;;;;;;;;35.33;30.33;;;;;;;;4974826;28;45658;-83
2022/11/12 13:05:21;;;;;;;;;37.33;31.00;;;;;;;;5013124;28;45454;-83
2022/11/12 13:14:24;;;;;;;;;22.33;12.33;;;;;;;;4932445;28;45401;-83
2022/11/12 13:17:10;;;;;;;;;33.67;31.67;;;;;;;;5006712;28;44896;-81
2022/11/12 13:22:55;;;;;;;;;34.00;32.00;;;;;;;;4920435;28;45878;-85
2022/11/12 13:35:19;;;;;;;;;39.33;32.67;;;;;;;;4995894;28;45873;-85
2022/11/12 13:47:47;;;;;;;;;34.67;31.33;;;;;;;;4996910;28;45866;-82
2022/11/12 14:09:30;;;;;;;;;35.33;31.67;;;;;;;;5023751;28;45539;-88
2022/11/12 14:12:43;;;;;;;;;;;;;;;;;;;;;
2022/11/12 14:15:15;;;;;;;;;40.67;33.33;;;;;;;;5070161;28;73548;-87
2022/11/12 14:18:15;;;;;;;;;34.67;30.00;;;;;;;;5065983;28;45532;-84
2022/11/12 14:20:46;;;;;;;;;38.33;29.33;;;;;;;;5071377;28;45524;-85
2022/11/12 14:27:09;;;;;;;;;;;;;;;;;;;;;
2022/11/12 14:29:23;;;;;;;;;39.00;31.00;;;;;;;;5087099;27;45067;-87
2022/11/12 14:32:01;;;;;;;;;41.00;32.67;;;;;;;;5074217;28;45924;-85
2022/11/12 14:34:43;;;;;;;;;37.00;31.67;;;;;;;;5082700;28;45573;-85
2022/11/12 14:37:33;;;;;;;;;39.67;31.67;;;;;;;;5090359;28;45416;-84
2022/11/12 14:40:06;;;;;;;;;37.67;34.33;;;;;;;;5087564;28;45521;-86
2022/11/12 14:42:34;;;;;;;;;31.67;30.00;;;;;;;;5082018;28;45410;-88
2022/11/12 14:45:18;;;;;;;;;31.67;27.67;;;;;;;;5095105;27;45480;-84
2022/11/12 14:47:58;;;;;;;;;35.33;32.00;;;;;;;;5081712;28;45567;-78
2022/11/12 14:50:42;;;;;;;;;31.67;29.33;;;;;;;;5076121;27;45358;-83
2022/11/12 14:53:19;;;;;;;;;33.00;30.00;;;;;;;;5052156;27;47321;-79
2022/11/12 14:56:18;;;;;;;;;31.67;28.33;;;;;;;;5076955;28;45422;-80
2022/11/12 15:02:05;;;;;;;;;37.33;32.67;;;;;;;;5030568;28;45026;-83
2022/11/12 15:20:17;;;;;;;;;35.00;29.67;;;;;;;;5021211;28;45772;-84
2022/11/12 15:26:13;;;;;;;;;26.67;25.67;;;;;;;;4982696;28;45639;-84
2022/11/12 15:29:01;;;;;;;;;29.33;28.67;;;;;;;;5047147;27;45690;-86
2022/11/12 15:31:28;;;;;;;;;36.00;29.67;;;;;;;;5095912;27;45795;-88
2022/11/12 15:33:55;;;;;;;;;25.33;22.33;;;;;;;;5073009;27;45110;-87
2022/11/12 15:36:23;;;;;;;;;35.33;31.67;;;;;;;;5094613;27;45800;-85
2022/11/12 15:39:41;;;;;;;;;24.67;22.67;;;;;;;;5071038;27;46459;-84
2022/11/12 15:42:19;;;;;;;;;26.67;20.00;;;;;;;;5084751;27;45546;-80
2022/11/12 15:45:02;;;;;;;;;30.67;27.00;;;;;;;;5068658;27;45378;-83
2022/11/12 15:47:37;;;;;;;;;34.67;29.67;;;;;;;;5086395;27;45872;-80
2022/11/12 15:50:33;;;;;;;;;25.67;21.67;;;;;;;;5088874;27;45701;-81
2022/11/12 15:53:27;;;;;;;;;33.33;23.00;;;;;;;;5066605;27;47153;-80
2022/11/12 15:56:16;;;;;;;;;27.00;25.00;;;;;;;;5068452;28;45656;-81
2022/11/12 15:59:02;;;;;;;;;31.33;25.00;;;;;;;;5028192;28;45994;-81
2022/11/12 16:01:30;;;;;;;;;26.67;23.33;;;;;;;;5043335;28;46548;-81
2022/11/12 16:04:05;;;;;;;;;27.67;27.67;;;;;;;;5041373;27;45948;-81
2022/11/12 16:07:00;;;;;;;;;29.33;29.33;;;;;;;;5060031;27;46163;-81
2022/11/12 16:09:31;;;;;;;;;26.33;24.00;;;;;;;;5043415;27;45958;-81
2022/11/12 16:11:57;;;;;;;;;37.33;30.33;;;;;;;;5055223;28;46845;-83
2022/11/12 16:14:23;;;;;;;;;30.33;27.00;;;;;;;;5052861;28;47313;-83
2022/11/12 16:16:52;;;;;;;;;28.00;26.67;;;;;;;;5070914;27;45662;-81
2022/11/12 16:19:33;;;;;;;;;34.00;30.33;;;;;;;;5060530;28;45710;-83
2022/11/12 16:22:11;;;;;;;;;;;;;;;;;;;;;
2022/11/12 16:25:38;;;;;;;;;;;;;;;;;;;;;
2022/11/12 16:28:11;;;;;;;;;25.33;21.33;;;;;;;;5022339;28;72149;-81
2022/11/12 16:30:42;;;;;;;;;33.00;28.00;;;;;;;;5067663;28;45836;-81
2022/11/12 16:36:39;;;;;;;;;38.67;30.33;;;;;;;;5075387;27;45618;-82
2022/11/12 16:39:16;;;;;;;;;23.33;23.33;;;;;;;;5059960;28;45698;-85
2022/11/12 16:45:16;;;;;;;;;33.00;31.67;;;;;;;;4983869;28;45450;-84
2022/11/12 16:48:23;;;;;;;;;30.00;27.33;;;;;;;;4981587;28;46318;-82
2022/11/12 16:51:37;;;;;;;;;37.33;30.33;;;;;;;;5052476;28;45386;-83
2022/11/12 17:10:37;;;;;;;;;32.33;30.00;;;;;;;;4989352;28;45883;-83
2022/11/12 17:14:17;;;;;;;;;;;;;;;;;;;;;
2022/11/12 17:19:55;;;;;;;;;;;;;;;;;;;;;
2022/11/12 17:22:15;;;;;;;;;37.67;29.67;;;;;;;;4985778;28;45456;-84
2022/11/12 17:25:15;;;;;;;;;28.33;18.67;;;;;;;;4987418;28;48758;-87
2022/11/12 17:27:55;;;;;;;;;34.33;32.00;;;;;;;;4951655;28;44896;-83
2022/11/12 17:30:46;;;;;;;;;32.67;32.00;;;;;;;;4957050;28;45545;-83
2022/11/12 17:33:11;;;;;;;;;41.67;35.33;;;;;;;;4974226;28;46463;-84
2022/11/12 17:38:45;;;;;;;;;48.33;36.67;;;;;;;;4976101;28;45534;-86
2022/11/12 17:41:29;;;;;;;;;45.00;37.00;;;;;;;;4955399;28;45726;-85
2022/11/12 17:44:01;;;;;;;;;37.67;34.00;;;;;;;;4950766;28;46516;-89
2022/11/12 17:46:36;;;;;;;;;43.67;36.33;;;;;;;;4999690;28;46085;-80
2022/11/12 17:49:22;;;;;;;;;44.00;37.67;;;;;;;;5057442;27;45724;-78
2022/11/12 17:52:13;;;;;;;;;41.00;34.67;;;;;;;;5056190;28;45511;-85
2022/11/12 17:54:58;;;;;;;;;40.33;34.67;;;;;;;;5070406;28;45797;-84
2022/11/12 17:57:37;;;;;;;;;42.00;34.00;;;;;;;;5060074;28;46179;-85
2022/11/12 18:00:22;;;;;;;;;44.67;37.33;;;;;;;;5057540;28;46719;-83
2022/11/12 18:02:47;;;;;;;;;40.00;34.33;;;;;;;;5053287;28;47052;-84
2022/11/12 18:05:15;;;;;;;;;44.67;37.00;;;;;;;;5056193;27;45756;-88
2022/11/12 18:07:41;;;;;;;;;43.33;36.33;;;;;;;;5075773;27;45496;-82
2022/11/12 18:10:16;;;;;;;;;45.33;37.33;;;;;;;;5061129;28;45912;-82
2022/11/12 18:12:46;;;;;;;;;45.33;39.33;;;;;;;;5072805;27;45477;-84
2022/11/12 18:15:18;;;;;;;;;45.00;37.67;;;;;;;;5057902;28;45385;-83
2022/11/12 18:17:51;;;;;;;;;40.67;33.67;;;;;;;;5075399;27;45656;-84